KAKO

Colorado Plains Regional Airport

Akron, Colorado, USA
METAR KAKO 171553Z AUTO 14009KT 10SM CLR 26/12 A3026 RMK AO2 SLP189 T02610117 $
Observed Flight Rules
Aug-17 @ 15:53 UTC (58 minutes ago) Visual Flight Rules
Wind Visibility Clouds
140° at 9 knots 10 miles
  • Clear skies
Temperatures Readings
Current 26°C / 79°F
Dewpoint 12°C / 54°F
Humidity 42%
Altimeter 30.26" Hg
Pressure 1018.9 hPa
Elevation 1421
METAR KAKO 171553Z AUTO 14009KT 10SM CLR 26/12 A3026 RMK AO2 SLP189 T02610117 $
Observed Flight Rules
Aug-17 @ 15:53 UTC
(58 minutes ago)
VFR
Wind Visibility
140° at 9 knots 10 miles
Clouds
  • Clear skies
Temperature Dewpoint
26°C / 79°F 12°C / 54°F
Humidity Altimeter Pressure
42% 30.26" Hg 1018.9 hPa